Time;durP1;ratioP1;P1;durP2;ratioP2;P2;SDS_P1;SDS_P2;PMS_P1;PMS_P2;Temp;Humidity;BMP_temperature;BMP_pressure;BME280_temperature;BME280_humidity;BME280_pressure;Samples;Min_cycle;Max_cycle;Signal;HPM_P1;HPM_P2
2022/08/14 00:02:58;;;;;;;8.60;5.60;;;;;;;;;;6118882;23;20182;-90
2022/08/14 00:06:04;;;;;;;9.05;5.72;;;;;;;;;;6121646;23;20189;-90
2022/08/14 00:09:11;;;;;;;11.35;5.85;;;;;;;;;;6121396;23;20245;-90
2022/08/14 00:12:16;;;;;;;7.18;5.53;;;;;;;;;;6120606;23;20173;-89
2022/08/14 00:15:25;;;;;;;8.75;5.72;;;;;;;;;;6122307;23;20260;-89
2022/08/14 00:18:30;;;;;;;10.98;6.00;;;;;;;;;;6120825;23;20582;-90
2022/08/14 00:21:37;;;;;;;8.68;6.05;;;;;;;;;;6121607;23;20169;-90
2022/08/14 00:24:42;;;;;;;10.82;5.57;;;;;;;;;;6121072;23;20245;-90
2022/08/14 00:27:47;;;;;;;8.27;5.93;;;;;;;;;;6121899;23;20690;-89
2022/08/14 00:30:56;;;;;;;7.72;5.68;;;;;;;;;;6120764;23;20233;-90
2022/08/14 00:34:01;;;;;;;7.78;5.68;;;;;;;;;;6120723;23;20185;-90
2022/08/14 00:37:07;;;;;;;6.78;5.72;;;;;;;;;;6122578;23;20170;-90
2022/08/14 00:40:13;;;;;;;8.48;6.40;;;;;;;;;;6120483;23;20225;-88
2022/08/14 00:43:19;;;;;;;8.35;5.88;;;;;;;;;;6120857;23;20172;-89
2022/08/14 00:46:29;;;;;;;7.55;5.72;;;;;;;;;;6121750;23;20184;-90
2022/08/14 00:49:36;;;;;;;8.93;5.90;;;;;;;;;;6120559;23;20298;-89
2022/08/14 00:52:44;;;;;;;12.75;7.07;;;;;;;;;;6121181;23;20173;-91
2022/08/14 00:55:50;;;;;;;7.93;5.65;;;;;;;;;;6120674;23;20610;-88
2022/08/14 00:58:58;;;;;;;10.45;6.28;;;;;;;;;;6121065;23;20205;-88
2022/08/14 01:02:04;;;;;;;11.10;6.40;;;;;;;;;;6120198;23;20273;-88
2022/08/14 01:05:22;;;;;;;8.77;6.40;;;;;;;;;;6119039;23;20176;-89
2022/08/14 01:08:28;;;;;;;10.73;6.53;;;;;;;;;;6136329;23;20201;-90
2022/08/14 01:11:34;;;;;;;9.18;5.93;;;;;;;;;;6137790;23;20264;-90
2022/08/14 01:14:39;;;;;;;8.65;6.60;;;;;;;;;;6120444;23;20266;-89
2022/08/14 01:21:10;;;;;;;8.57;6.55;;;;;;;;;;6119462;23;20617;-92
2022/08/14 01:24:16;;;;;;;9.15;6.50;;;;;;;;;;6121606;23;20169;-90
2022/08/14 01:27:23;;;;;;;8.57;6.50;;;;;;;;;;6120260;23;20241;-88
2022/08/14 01:30:31;;;;;;;10.15;5.97;;;;;;;;;;6120722;23;20172;-90
2022/08/14 01:33:40;;;;;;;13.85;6.40;;;;;;;;;;6120091;23;20177;-90
2022/08/14 01:36:45;;;;;;;9.77;6.38;;;;;;;;;;6136864;23;20535;-90
2022/08/14 01:39:52;;;;;;;10.05;6.45;;;;;;;;;;6121068;23;20188;-90
2022/08/14 01:42:58;;;;;;;10.77;6.07;;;;;;;;;;6120040;23;20668;-90
2022/08/14 01:46:05;;;;;;;9.27;6.30;;;;;;;;;;6118968;23;20170;-89
2022/08/14 01:49:11;;;;;;;10.98;6.22;;;;;;;;;;6120425;23;20177;-91
2022/08/14 01:52:21;;;;;;;11.70;6.97;;;;;;;;;;6120389;23;20173;-90
2022/08/14 01:55:29;;;;;;;11.95;6.35;;;;;;;;;;6121554;23;20196;-90
2022/08/14 01:58:34;;;;;;;9.52;6.57;;;;;;;;;;6121489;23;20181;-90
2022/08/14 02:01:40;;;;;;;10.02;6.88;;;;;;;;;;6122211;23;20217;-90
2022/08/14 02:04:45;;;;;;;9.82;6.75;;;;;;;;;;6118570;23;20174;-89
2022/08/14 02:07:51;;;;;;;12.63;7.03;;;;;;;;;;6120036;23;20160;-90
2022/08/14 02:11:21;;;;;;;9.25;6.88;;;;;;;;;;6120794;23;20176;-91
2022/08/14 02:14:26;;;;;;;12.02;7.15;;;;;;;;;;6120295;23;20201;-90
2022/08/14 02:17:33;;;;;;;10.88;7.10;;;;;;;;;;6120439;23;20177;-90
2022/08/14 02:20:42;;;;;;;9.68;6.93;;;;;;;;;;6118667;23;20177;-89
2022/08/14 02:23:48;;;;;;;9.68;6.53;;;;;;;;;;6119052;23;20178;-91
2022/08/14 02:26:55;;;;;;;10.07;7.28;;;;;;;;;;6119598;23;20200;-90
2022/08/14 02:30:02;;;;;;;13.68;7.45;;;;;;;;;;6120623;23;20170;-91
2022/08/14 02:33:07;;;;;;;13.70;7.40;;;;;;;;;;6120528;23;20173;-89
2022/08/14 02:36:13;;;;;;;9.57;6.72;;;;;;;;;;6121159;23;20170;-90
2022/08/14 02:39:19;;;;;;;8.98;7.22;;;;;;;;;;6120240;23;20173;-90
2022/08/14 02:42:26;;;;;;;10.68;7.15;;;;;;;;;;6119104;23;20169;-88
2022/08/14 02:45:40;;;;;;;9.48;6.75;;;;;;;;;;6119623;23;20169;-90
2022/08/14 02:48:46;;;;;;;10.95;6.70;;;;;;;;;;6119387;23;20179;-90
2022/08/14 02:51:51;;;;;;;11.05;7.45;;;;;;;;;;6120434;23;20173;-90
2022/08/14 02:54:56;;;;;;;10.48;7.15;;;;;;;;;;6119216;23;20193;-87
2022/08/14 02:58:07;;;;;;;10.73;7.03;;;;;;;;;;6119402;23;20173;-89
2022/08/14 03:01:14;;;;;;;10.80;7.30;;;;;;;;;;6120834;23;20170;-90
2022/08/14 03:04:19;;;;;;;10.00;7.13;;;;;;;;;;6118954;23;20165;-90
2022/08/14 03:07:24;;;;;;;10.85;7.30;;;;;;;;;;6119855;23;20173;-90
2022/08/14 03:10:33;;;;;;;13.63;7.35;;;;;;;;;;6118371;23;20520;-89
2022/08/14 03:13:40;;;;;;;11.93;7.50;;;;;;;;;;6118200;23;20659;-89
2022/08/14 03:16:48;;;;;;;14.32;7.35;;;;;;;;;;6119222;23;20213;-90
2022/08/14 03:19:53;;;;;;;10.02;7.63;;;;;;;;;;6118829;23;20176;-90
2022/08/14 03:23:01;;;;;;;11.38;7.60;;;;;;;;;;6119308;23;20185;-91
2022/08/14 03:26:07;;;;;;;12.73;7.57;;;;;;;;;;6120215;23;20193;-89
2022/08/14 03:29:15;;;;;;;10.93;7.75;;;;;;;;;;6120828;23;20168;-90
2022/08/14 03:32:20;;;;;;;14.35;7.70;;;;;;;;;;6120397;23;20169;-91
2022/08/14 03:35:26;;;;;;;12.18;7.40;;;;;;;;;;6120558;23;20196;-88
2022/08/14 03:38:32;;;;;;;10.98;8.13;;;;;;;;;;6120563;23;20170;-90
2022/08/14 03:41:37;;;;;;;12.77;7.38;;;;;;;;;;6119866;23;20177;-87
2022/08/14 03:44:44;;;;;;;13.68;7.72;;;;;;;;;;6120760;23;20189;-88
2022/08/14 03:47:49;;;;;;;10.80;7.20;;;;;;;;;;6118791;23;20173;-90
2022/08/14 03:50:54;;;;;;;14.50;8.35;;;;;;;;;;6121075;23;20189;-90
2022/08/14 03:54:00;;;;;;;11.23;7.88;;;;;;;;;;6120867;23;20172;-90
2022/08/14 03:57:06;;;;;;;12.07;8.40;;;;;;;;;;6121075;23;20177;-89
2022/08/14 04:00:14;;;;;;;12.48;8.38;;;;;;;;;;6121178;23;20239;-90
2022/08/14 04:03:20;;;;;;;9.75;7.72;;;;;;;;;;6121443;23;20177;-90
2022/08/14 04:06:26;;;;;;;15.45;7.80;;;;;;;;;;6121932;23;20169;-89
2022/08/14 04:09:32;;;;;;;11.77;7.72;;;;;;;;;;6122260;23;20165;-89
2022/08/14 04:12:41;;;;;;;11.73;8.40;;;;;;;;;;6122873;23;20181;-89
2022/08/14 04:15:48;;;;;;;12.02;7.97;;;;;;;;;;6120674;23;20652;-90
2022/08/14 04:18:55;;;;;;;12.63;8.05;;;;;;;;;;6122062;23;20209;-90
2022/08/14 04:22:01;;;;;;;12.23;8.15;;;;;;;;;;6120688;23;20172;-88
2022/08/14 04:25:06;;;;;;;15.20;7.97;;;;;;;;;;6122989;23;20196;-90
2022/08/14 04:28:11;;;;;;;12.07;8.60;;;;;;;;;;6122011;23;20173;-90
2022/08/14 04:31:18;;;;;;;15.32;8.15;;;;;;;;;;6121934;23;20173;-90
2022/08/14 04:34:24;;;;;;;12.85;7.90;;;;;;;;;;6121072;23;20230;-90
2022/08/14 04:44:15;;;;;;;10.13;7.97;;;;;;;;;;6122064;23;20165;-88
2022/08/14 04:50:50;;;;;;;11.40;7.93;;;;;;;;;;6119879;23;20213;-88
2022/08/14 04:53:56;;;;;;;10.65;8.20;;;;;;;;;;6119400;23;20231;-89
2022/08/14 04:57:01;;;;;;;12.88;8.63;;;;;;;;;;6120483;23;20240;-90
2022/08/14 05:00:07;;;;;;;14.30;7.93;;;;;;;;;;6120179;23;20176;-89
2022/08/14 05:03:15;;;;;;;12.48;8.60;;;;;;;;;;6120753;23;20224;-89
2022/08/14 05:06:20;;;;;;;11.85;8.50;;;;;;;;;;6120595;23;20169;-91
2022/08/14 05:09:26;;;;;;;15.35;8.23;;;;;;;;;;6120422;23;20177;-91
2022/08/14 05:12:31;;;;;;;13.93;8.35;;;;;;;;;;6119709;23;20181;-89
2022/08/14 05:15:37;;;;;;;10.95;8.27;;;;;;;;;;6119742;23;20196;-90
2022/08/14 05:18:45;;;;;;;12.77;8.65;;;;;;;;;;6118695;23;20188;-90
2022/08/14 05:21:52;;;;;;;14.43;8.55;;;;;;;;;;6120038;23;20193;-89
2022/08/14 05:24:57;;;;;;;10.45;8.13;;;;;;;;;;6120199;23;20189;-89
2022/08/14 05:28:10;;;;;;;15.40;7.78;;;;;;;;;;6120160;23;20177;-91
2022/08/14 05:31:17;;;;;;;11.00;8.10;;;;;;;;;;6120892;23;20169;-90
2022/08/14 05:34:28;;;;;;;12.13;8.70;;;;;;;;;;6119260;23;20173;-92
2022/08/14 05:37:34;;;;;;;13.80;8.80;;;;;;;;;;6137696;23;20165;-90
2022/08/14 05:40:39;;;;;;;14.20;8.57;;;;;;;;;;6120253;23;20221;-89
2022/08/14 05:43:46;;;;;;;13.75;8.40;;;;;;;;;;6124131;23;20173;-90
2022/08/14 05:47:21;;;;;;;15.40;8.63;;;;;;;;;;6119809;23;20173;-91
2022/08/14 05:50:28;;;;;;;12.95;8.43;;;;;;;;;;6121521;23;20244;-90
2022/08/14 05:53:33;;;;;;;12.70;8.80;;;;;;;;;;6119729;23;20161;-89
2022/08/14 05:56:38;;;;;;;11.73;8.80;;;;;;;;;;6121698;23;20197;-89
2022/08/14 05:59:47;;;;;;;11.02;8.32;;;;;;;;;;6120449;23;20226;-89
2022/08/14 06:02:52;;;;;;;14.88;8.77;;;;;;;;;;6119609;23;20265;-89
2022/08/14 06:05:59;;;;;;;15.30;8.50;;;;;;;;;;6120329;23;20173;-89
2022/08/14 06:09:06;;;;;;;12.15;8.10;;;;;;;;;;6121325;23;20168;-89
2022/08/14 06:12:11;;;;;;;12.88;8.10;;;;;;;;;;6119873;23;20225;-89
2022/08/14 06:15:17;;;;;;;11.60;8.15;;;;;;;;;;6119611;23;20197;-89
2022/08/14 06:18:22;;;;;;;15.35;7.70;;;;;;;;;;6121290;23;20201;-89
2022/08/14 06:21:28;;;;;;;11.02;7.65;;;;;;;;;;6121891;23;20173;-91
2022/08/14 06:24:33;;;;;;;16.02;8.63;;;;;;;;;;6121755;23;20216;-91
2022/08/14 06:27:38;;;;;;;13.20;8.35;;;;;;;;;;6119804;23;20184;-90
2022/08/14 06:30:44;;;;;;;13.27;7.82;;;;;;;;;;6121843;23;20172;-91
2022/08/14 06:33:49;;;;;;;11.45;7.72;;;;;;;;;;6138618;23;20180;-90
2022/08/14 06:36:56;;;;;;;10.32;7.20;;;;;;;;;;6121311;23;20213;-90
2022/08/14 06:40:01;;;;;;;10.45;7.38;;;;;;;;;;6122620;23;20170;-89
2022/08/14 06:43:10;;;;;;;10.13;7.50;;;;;;;;;;6122950;23;20169;-90
2022/08/14 06:46:17;;;;;;;12.80;7.55;;;;;;;;;;6120585;23;20231;-90
2022/08/14 06:49:23;;;;;;;10.88;7.13;;;;;;;;;;6120564;23;20169;-90
2022/08/14 06:52:30;;;;;;;11.43;7.10;;;;;;;;;;6121778;23;20217;-91
2022/08/14 06:55:35;;;;;;;10.15;6.75;;;;;;;;;;6122675;23;20190;-89
2022/08/14 06:58:43;;;;;;;9.27;6.57;;;;;;;;;;6125398;23;20157;-91
2022/08/14 07:08:35;;;;;;;11.77;6.43;;;;;;;;;;6123087;23;20170;-91
2022/08/14 07:11:41;;;;;;;10.02;6.65;;;;;;;;;;6124456;23;20170;-90
2022/08/14 07:14:48;;;;;;;8.32;6.10;;;;;;;;;;6122837;23;20173;-90
2022/08/14 07:17:53;;;;;;;11.63;6.10;;;;;;;;;;6123498;23;20165;-90
2022/08/14 07:20:59;;;;;;;8.82;5.70;;;;;;;;;;6123235;23;20237;-91
2022/08/14 07:24:06;;;;;;;8.20;6.10;;;;;;;;;;6123446;23;20498;-92
2022/08/14 07:27:15;;;;;;;10.15;6.20;;;;;;;;;;6124766;23;20166;-88
2022/08/14 07:30:21;;;;;;;15.77;6.13;;;;;;;;;;6128850;23;20201;-90
2022/08/14 07:33:29;;;;;;;8.27;5.30;;;;;;;;;;6126734;23;20221;-91
2022/08/14 07:36:36;;;;;;;11.07;5.95;;;;;;;;;;6126316;23;20193;-90
2022/08/14 07:39:42;;;;;;;8.75;5.68;;;;;;;;;;6125573;23;20169;-91
2022/08/14 07:42:48;;;;;;;7.43;5.47;;;;;;;;;;6123412;23;20173;-89
2022/08/14 07:45:56;;;;;;;8.55;5.60;;;;;;;;;;6124808;23;20193;-90
2022/08/14 07:49:01;;;;;;;8.57;5.50;;;;;;;;;;6122862;23;20173;-91
2022/08/14 07:52:08;;;;;;;10.60;5.30;;;;;;;;;;6123056;23;20183;-92
2022/08/14 07:55:16;;;;;;;6.60;5.18;;;;;;;;;;6121943;23;20189;-89
2022/08/14 07:58:22;;;;;;;10.57;5.38;;;;;;;;;;6121652;23;20172;-91
2022/08/14 08:01:29;;;;;;;7.75;5.50;;;;;;;;;;6123036;23;20229;-92
2022/08/14 08:04:37;;;;;;;7.53;5.18;;;;;;;;;;6122078;23;20179;-89
2022/08/14 08:07:43;;;;;;;7.00;5.28;;;;;;;;;;6122848;23;20490;-88
2022/08/14 08:10:50;;;;;;;7.22;5.00;;;;;;;;;;6123965;23;20633;-91
2022/08/14 08:13:56;;;;;;;7.18;5.50;;;;;;;;;;6123854;23;20251;-90
2022/08/14 08:17:01;;;;;;;6.57;5.22;;;;;;;;;;6122094;23;20180;-90
2022/08/14 08:20:09;;;;;;;8.57;5.28;;;;;;;;;;6121479;23;20806;-91
2022/08/14 08:23:20;;;;;;;8.55;5.55;;;;;;;;;;6122760;23;20196;-88
2022/08/14 08:26:31;;;;;;;7.43;5.25;;;;;;;;;;6125963;23;20516;-92
2022/08/14 08:29:37;;;;;;;8.20;5.28;;;;;;;;;;6127664;23;20192;-91
2022/08/14 22:06:58;;;;;;;19.25;9.27;;;;;;;;;;6094570;23;20201;-90
2022/08/14 22:10:04;;;;;;;12.50;8.55;;;;;;;;;;6118524;23;20185;-91
2022/08/14 22:13:10;;;;;;;16.83;8.68;;;;;;;;;;6116363;23;20173;-90
2022/08/14 22:16:15;;;;;;;13.13;8.88;;;;;;;;;;6119009;23;20317;-89
2022/08/14 22:19:22;;;;;;;12.98;8.90;;;;;;;;;;6117782;23;20258;-89
2022/08/14 22:22:29;;;;;;;13.13;9.05;;;;;;;;;;6117701;23;20189;-89
2022/08/14 22:25:35;;;;;;;16.42;9.27;;;;;;;;;;6117868;23;20169;-90
2022/08/14 22:28:41;;;;;;;14.25;8.85;;;;;;;;;;6117466;23;20168;-89
2022/08/14 22:31:47;;;;;;;14.77;9.18;;;;;;;;;;6118774;23;20173;-90
2022/08/14 22:34:51;;;;;;;15.05;8.90;;;;;;;;;;6118366;23;20225;-89
2022/08/14 22:37:58;;;;;;;13.35;8.95;;;;;;;;;;6135168;23;20177;-90
2022/08/14 22:41:03;;;;;;;14.52;8.90;;;;;;;;;;6118640;23;20240;-89
2022/08/14 22:44:10;;;;;;;14.68;8.68;;;;;;;;;;6137666;23;20177;-90
2022/08/14 22:47:59;;;;;;;12.27;8.75;;;;;;;;;;6116068;23;20172;-89
2022/08/14 22:51:04;;;;;;;16.23;8.85;;;;;;;;;;6117814;23;20231;-90
2022/08/14 22:54:11;;;;;;;14.70;8.77;;;;;;;;;;6118549;23;20166;-88
2022/08/14 22:57:17;;;;;;;17.35;9.48;;;;;;;;;;6117679;23;20193;-89
2022/08/14 23:00:23;;;;;;;16.48;8.95;;;;;;;;;;6118148;23;20174;-89
2022/08/14 23:03:28;;;;;;;13.02;8.52;;;;;;;;;;6116968;23;20185;-90
2022/08/14 23:06:33;;;;;;;14.00;8.95;;;;;;;;;;6116474;23;20173;-89
2022/08/14 23:09:42;;;;;;;12.50;8.40;;;;;;;;;;6117987;23;20173;-90
2022/08/14 23:12:47;;;;;;;14.70;9.18;;;;;;;;;;6116985;23;20177;-92
2022/08/14 23:15:53;;;;;;;14.85;9.38;;;;;;;;;;6115335;23;20258;-90
2022/08/14 23:18:57;;;;;;;16.63;9.43;;;;;;;;;;6117611;23;20189;-89
2022/08/14 23:22:03;;;;;;;15.45;9.30;;;;;;;;;;6117645;23;20177;-90
2022/08/14 23:25:12;;;;;;;15.02;9.18;;;;;;;;;;6115924;23;20189;-90
2022/08/14 23:28:19;;;;;;;14.43;9.25;;;;;;;;;;6116338;23;20166;-90
2022/08/14 23:31:24;;;;;;;15.43;9.23;;;;;;;;;;6116165;23;20185;-89
2022/08/14 23:34:29;;;;;;;14.70;9.10;;;;;;;;;;6114723;23;20633;-90
2022/08/14 23:37:35;;;;;;;17.73;9.95;;;;;;;;;;6116866;23;20225;-89
2022/08/14 23:40:43;;;;;;;14.90;9.55;;;;;;;;;;6117378;23;20174;-89
2022/08/14 23:43:53;;;;;;;15.68;9.38;;;;;;;;;;6118435;23;20495;-90
2022/08/14 23:46:59;;;;;;;14.23;9.32;;;;;;;;;;6117473;23;20173;-88
2022/08/14 23:50:06;;;;;;;14.40;9.27;;;;;;;;;;6093649;23;20182;-90
2022/08/14 23:53:17;;;;;;;13.93;9.05;;;;;;;;;;6119216;23;20185;-88
2022/08/14 23:56:26;;;;;;;17.92;9.18;;;;;;;;;;6134578;23;20173;-89
2022/08/14 23:59:32;;;;;;;15.77;9.18;;;;;;;;;;6118046;23;20169;-89
